createdAt,value
2018-08-04T00:01:03.187Z,41.66
2018-08-04T00:03:31.842Z,42.02
2018-08-04T00:06:00.346Z,40.89
2018-08-04T00:08:33.469Z,41.66
2018-08-04T00:11:02.103Z,40.73
2018-08-04T00:13:31.262Z,40.86
2018-08-04T00:15:59.900Z,41.39
2018-08-04T00:18:28.521Z,42.54
2018-08-04T00:20:59.358Z,42.21
2018-08-04T00:23:27.819Z,42.45
2018-08-04T00:25:56.578Z,42.91
2018-08-04T00:28:25.763Z,42.30
2018-08-04T00:30:54.286Z,42.64
2018-08-04T00:33:24.476Z,42.23
2018-08-04T00:35:53.837Z,42.37
2018-08-04T00:38:22.886Z,42.66
2018-08-04T00:40:51.444Z,43.00
2018-08-04T00:43:21.057Z,43.16
2018-08-04T00:45:50.213Z,43.73
2018-08-04T00:48:18.834Z,44.11
2018-08-04T00:50:48.307Z,44.43
2018-08-04T00:53:16.843Z,43.86
2018-08-04T00:55:45.919Z,44.37
2018-08-04T00:58:14.349Z,44.49
2018-08-04T01:00:42.866Z,44.66
2018-08-04T01:03:12.043Z,45.24
2018-08-04T01:05:40.651Z,45.01
2018-08-04T01:08:09.908Z,44.56
2018-08-04T01:10:40.243Z,45.14
2018-08-04T01:13:09.905Z,46.00
2018-08-04T01:15:39.193Z,46.39
2018-08-04T01:18:07.729Z,46.19
2018-08-04T01:20:37.168Z,45.98
2018-08-04T01:23:06.581Z,46.11
2018-08-04T01:25:36.319Z,46.97
2018-08-04T01:28:05.085Z,47.49
2018-08-04T01:30:34.508Z,47.50
2018-08-04T01:33:03.245Z,47.57
2018-08-04T01:35:32.693Z,47.32
2018-08-04T01:38:01.402Z,47.80
2018-08-04T01:40:30.863Z,47.59
2018-08-04T01:42:59.385Z,48.32
2018-08-04T01:45:27.948Z,47.30
2018-08-04T01:47:56.546Z,48.00
2018-08-04T01:50:27.807Z,48.05
2018-08-04T01:52:57.730Z,48.29
2018-08-04T01:55:27.309Z,48.08
2018-08-04T01:57:56.573Z,48.63
2018-08-04T02:00:27.572Z,48.49
2018-08-04T02:02:56.040Z,48.87
2018-08-04T02:05:24.569Z,48.71
2018-08-04T02:07:53.188Z,49.05
2018-08-04T02:10:21.773Z,48.99
2018-08-04T02:12:51.321Z,49.98
2018-08-04T02:15:20.007Z,49.48
2018-08-04T02:17:51.484Z,50.18
2018-08-04T02:20:21.028Z,49.95
2018-08-04T02:22:50.392Z,50.09
2018-08-04T02:25:19.843Z,50.58
2018-08-04T02:27:49.093Z,51.47
2018-08-04T02:30:17.673Z,51.36
2018-08-04T02:32:46.530Z,51.46
2018-08-04T02:35:15.859Z,51.62
2018-08-04T02:37:44.517Z,52.73
2018-08-04T02:40:14.004Z,52.38
2018-08-04T02:42:43.371Z,51.73
2018-08-04T02:45:13.593Z,53.03
2018-08-04T02:47:42.362Z,52.56
2018-08-04T02:50:10.850Z,52.96
2018-08-04T02:52:39.281Z,53.42
2018-08-04T02:55:08.099Z,53.54
2018-08-04T02:57:37.157Z,53.98
2018-08-04T03:00:07.293Z,54.79
2018-08-04T03:02:35.817Z,53.98
2018-08-04T03:05:05.014Z,54.64
2018-08-04T03:07:34.160Z,54.48
2018-08-04T03:10:05.366Z,55.22
2018-08-04T03:12:34.964Z,55.19
2018-08-04T03:15:03.551Z,55.73
2018-08-04T03:17:34.207Z,56.09
2018-08-04T03:20:02.759Z,55.79
2018-08-04T03:22:32.033Z,56.31
2018-08-04T03:25:00.636Z,56.07
2018-08-04T03:27:29.281Z,56.40
2018-08-04T03:29:57.933Z,56.55
2018-08-04T03:32:26.713Z,56.85
2018-08-04T03:34:55.237Z,56.37
2018-08-04T03:37:24.306Z,56.43
2018-08-04T03:39:53.629Z,56.11
2018-08-04T03:42:23.184Z,56.78
2018-08-04T03:44:51.790Z,56.74
2018-08-04T03:47:20.598Z,57.68
2018-08-04T03:49:53.645Z,57.77
2018-08-04T03:52:22.101Z,57.46
2018-08-04T03:54:50.589Z,58.47
2018-08-04T03:57:24.387Z,57.41
2018-08-04T03:59:53.522Z,57.93
2018-08-04T04:02:22.321Z,58.42
2018-08-04T04:04:51.029Z,58.21
2018-08-04T04:07:20.706Z,59.08
2018-08-04T04:09:50.430Z,58.94
2018-08-04T04:12:20.131Z,59.09
2018-08-04T04:14:48.675Z,59.96
2018-08-04T04:17:18.959Z,59.24
2018-08-04T04:19:47.787Z,59.47
2018-08-04T04:22:16.307Z,59.08
2018-08-04T04:24:46.351Z,58.38
2018-08-04T04:27:15.805Z,58.93
2018-08-04T04:29:44.954Z,58.62
2018-08-04T04:32:13.360Z,59.32
2018-08-04T04:34:43.553Z,58.98
2018-08-04T04:37:12.087Z,59.08
2018-08-04T04:39:42.761Z,58.71
2018-08-04T04:42:12.348Z,59.31
2018-08-04T04:44:41.089Z,59.64
2018-08-04T04:47:09.644Z,59.23
2018-08-04T04:49:41.855Z,59.21
2018-08-04T04:52:10.913Z,60.45
2018-08-04T04:54:40.974Z,60.49
2018-08-04T04:57:11.093Z,60.97
2018-08-04T04:59:43.248Z,61.02
2018-08-04T05:02:11.778Z,60.00
2018-08-04T05:04:42.044Z,60.63
2018-08-04T05:07:12.262Z,60.62
2018-08-04T05:09:40.823Z,60.86
2018-08-04T05:12:11.527Z,60.25
2018-08-04T05:14:40.776Z,60.84
2018-08-04T05:17:10.205Z,60.43
2018-08-04T05:19:39.229Z,61.09
2018-08-04T05:22:07.869Z,61.00
2018-08-04T05:24:36.594Z,60.32
2018-08-04T05:27:06.668Z,60.33
2018-08-04T05:29:35.344Z,60.00
2018-08-04T05:32:04.292Z,59.98
2018-08-04T05:34:35.155Z,60.13
2018-08-04T05:37:05.869Z,59.43
2018-08-04T05:39:34.361Z,59.89
2018-08-04T05:42:03.825Z,59.74
2018-08-04T05:44:34.309Z,59.46
2018-08-04T05:47:03.696Z,59.33
2018-08-04T05:49:33.506Z,59.81
2018-08-04T05:52:02.622Z,59.84
2018-08-04T05:54:32.380Z,60.06
2018-08-04T05:57:03.065Z,59.32
2018-08-04T05:59:31.860Z,59.96
2018-08-04T06:02:00.385Z,60.09
2018-08-04T06:04:29.220Z,60.29
2018-08-04T06:06:58.962Z,60.51
2018-08-04T06:09:29.308Z,60.08
2018-08-04T06:11:58.305Z,60.35
2018-08-04T06:14:27.596Z,60.93
2018-08-04T06:16:57.610Z,61.99
2018-08-04T06:19:27.215Z,61.00
2018-08-04T06:21:57.595Z,60.50
2018-08-04T06:24:26.981Z,60.04
2018-08-04T06:26:55.439Z,60.40
2018-08-04T06:29:25.093Z,60.41
2018-08-04T06:31:54.946Z,61.15
2018-08-04T06:34:23.645Z,60.82
2018-08-04T06:36:53.128Z,60.49
2018-08-04T06:39:24.635Z,60.46
2018-08-04T06:41:53.301Z,59.76
2018-08-04T06:44:23.863Z,60.04
2018-08-04T06:46:53.169Z,59.64
2018-08-04T06:49:24.583Z,59.10
2018-08-04T06:51:54.037Z,59.59
2018-08-04T06:54:23.472Z,58.99
2018-08-04T06:56:54.889Z,59.45
2018-08-04T06:59:23.653Z,59.37
2018-08-04T07:01:52.145Z,58.86
2018-08-04T07:04:20.650Z,58.48
2018-08-04T07:06:49.616Z,58.66
2018-08-04T07:09:18.983Z,58.72
2018-08-04T07:11:47.838Z,58.98
2018-08-04T07:14:16.571Z,58.78
2018-08-04T07:16:45.733Z,58.58
2018-08-04T07:19:14.675Z,58.99
2018-08-04T07:21:43.045Z,58.51
2018-08-04T07:24:12.406Z,58.32
2018-08-04T07:26:42.594Z,58.95
2018-08-04T07:29:11.756Z,59.20
2018-08-04T07:31:42.647Z,58.51
2018-08-04T07:34:12.011Z,58.03
2018-08-04T07:36:41.924Z,57.47
2018-08-04T07:39:11.730Z,57.95
2018-08-04T07:41:40.482Z,57.43
2018-08-04T07:44:09.498Z,58.36
2018-08-04T07:46:38.174Z,57.82
2018-08-04T07:49:07.066Z,57.58
2018-08-04T07:51:36.238Z,56.74
2018-08-04T07:54:06.970Z,56.73
2018-08-04T07:56:36.561Z,55.79
2018-08-04T07:59:05.287Z,55.75
2018-08-04T08:01:33.917Z,55.54
2018-08-04T08:04:02.576Z,55.12
2018-08-04T08:06:31.953Z,55.61
2018-08-04T08:09:01.080Z,55.42
2018-08-04T08:11:30.584Z,55.93
2018-08-04T08:13:59.167Z,55.16
2018-08-04T08:16:27.653Z,54.91
2018-08-04T08:18:56.637Z,54.99
2018-08-04T08:21:27.288Z,54.53
2018-08-04T08:23:57.010Z,54.84
2018-08-04T08:26:26.219Z,54.80
2018-08-04T08:28:56.445Z,53.47
2018-08-04T08:31:25.896Z,54.89
2018-08-04T08:33:56.033Z,53.19
2018-08-04T08:36:25.789Z,54.09
2018-08-04T08:38:54.309Z,52.40
2018-08-04T08:41:24.177Z,52.65
2018-08-04T08:43:53.573Z,51.57
2018-08-04T08:46:23.497Z,51.57
2018-08-04T08:48:55.706Z,52.48
2018-08-04T08:51:24.448Z,51.43
2018-08-04T08:53:53.917Z,50.86
2018-08-04T08:56:23.048Z,51.03
2018-08-04T08:58:52.108Z,51.56
2018-08-04T09:01:21.067Z,50.31
2018-08-04T09:03:49.729Z,50.07
2018-08-04T09:06:19.595Z,50.39
2018-08-04T09:08:49.000Z,50.94
2018-08-04T09:11:17.615Z,49.90
2018-08-04T09:13:47.376Z,48.84
2018-08-04T09:16:16.120Z,49.36
2018-08-04T09:18:44.698Z,48.79
2018-08-04T09:21:14.467Z,48.78
2018-08-04T09:23:44.244Z,48.68
2018-08-04T09:26:13.090Z,48.88
2018-08-04T09:28:41.717Z,49.40
2018-08-04T09:31:10.857Z,48.90
2018-08-04T09:33:39.672Z,48.87
2018-08-04T09:36:08.310Z,49.75
2018-08-04T09:38:37.362Z,48.66
2018-08-04T09:41:06.709Z,48.76
2018-08-04T09:43:35.701Z,47.40
2018-08-04T09:46:04.619Z,47.21
2018-08-04T09:48:33.492Z,46.82
2018-08-04T09:51:03.099Z,47.36
2018-08-04T09:53:32.188Z,46.42
2018-08-04T09:56:01.682Z,47.21
2018-08-04T09:58:30.233Z,46.47
2018-08-04T10:01:03.898Z,47.44
2018-08-04T10:03:32.890Z,46.56
2018-08-04T10:06:02.486Z,46.37
2018-08-04T10:08:32.119Z,46.24
2018-08-04T10:11:00.692Z,46.03
2018-08-04T10:13:29.311Z,47.13
2018-08-04T10:15:58.135Z,45.74
2018-08-04T10:18:28.837Z,46.36
2018-08-04T10:20:57.294Z,45.96
2018-08-04T10:23:26.456Z,45.77
2018-08-04T10:25:55.141Z,44.79
2018-08-04T10:28:24.285Z,45.16
2018-08-04T10:30:52.802Z,45.16
2018-08-04T10:33:22.262Z,45.65
2018-08-04T10:35:51.865Z,46.18
2018-08-04T10:38:20.561Z,45.83
2018-08-04T10:40:49.146Z,45.12
2018-08-04T10:43:17.677Z,43.99
2018-08-04T10:45:46.611Z,44.19
2018-08-04T10:48:15.871Z,42.61
2018-08-04T10:50:44.557Z,42.96
2018-08-04T10:53:14.368Z,43.44
2018-08-04T10:55:42.870Z,42.73
2018-08-04T10:58:11.631Z,42.00
2018-08-04T11:00:40.097Z,43.13
2018-08-04T11:03:09.054Z,43.61
2018-08-04T11:05:37.786Z,42.54
2018-08-04T11:08:08.030Z,42.25
2018-08-04T11:10:36.534Z,41.51
2018-08-04T11:13:05.328Z,41.57
2018-08-04T11:15:33.881Z,42.72
2018-08-04T11:18:03.530Z,42.33
2018-08-04T11:20:32.598Z,41.97
2018-08-04T11:23:01.658Z,40.99
2018-08-04T11:25:30.978Z,40.11
2018-08-04T11:27:59.630Z,39.46
2018-08-04T11:30:28.795Z,37.13
2018-08-04T11:32:58.168Z,37.48
2018-08-04T11:35:26.830Z,37.89
2018-08-04T11:37:55.333Z,38.86
2018-08-04T11:40:24.125Z,38.09
2018-08-04T11:42:53.544Z,37.31
2018-08-04T11:45:23.007Z,37.32
2018-08-04T11:47:51.667Z,38.13
2018-08-04T11:50:20.628Z,37.58
2018-08-04T11:52:49.133Z,38.33
2018-08-04T11:55:17.616Z,38.04
2018-08-04T11:57:47.145Z,37.43
2018-08-04T12:00:16.825Z,37.88
2018-08-04T12:02:46.256Z,37.91
2018-08-04T12:05:16.209Z,37.55
2018-08-04T12:07:44.766Z,37.52
2018-08-04T12:10:13.512Z,37.69
2018-08-04T12:12:43.271Z,36.90
2018-08-04T12:15:13.757Z,36.06
2018-08-04T12:17:44.311Z,34.93
2018-08-04T12:20:14.229Z,34.52
2018-08-04T12:22:42.792Z,33.73
2018-08-04T12:25:11.444Z,34.15
2018-08-04T12:27:40.305Z,33.97
2018-08-04T12:30:10.131Z,33.75
2018-08-04T12:32:40.042Z,35.57
2018-08-04T12:35:09.951Z,32.89
2018-08-04T12:37:38.831Z,33.68
2018-08-04T12:40:08.205Z,32.82
2018-08-04T12:42:38.042Z,32.22
2018-08-04T12:45:07.349Z,32.88
2018-08-04T12:47:36.670Z,31.68
2018-08-04T12:50:05.577Z,31.75
2018-08-04T12:52:36.087Z,32.23
2018-08-04T12:55:04.720Z,32.25
2018-08-04T12:57:35.500Z,31.24
2018-08-04T13:00:05.787Z,31.51
2018-08-04T13:02:34.328Z,32.62
2018-08-04T13:05:02.804Z,31.90
2018-08-04T13:07:31.498Z,31.11
2018-08-04T13:10:00.019Z,30.72
2018-08-04T13:12:30.747Z,31.58
2018-08-04T13:14:59.596Z,31.78
2018-08-04T13:17:29.335Z,31.08
2018-08-04T13:19:58.172Z,31.10
2018-08-04T13:22:27.597Z,30.93
2018-08-04T13:24:56.313Z,31.46
2018-08-04T13:27:25.219Z,31.85
2018-08-04T13:29:53.896Z,31.24
2018-08-04T13:32:22.480Z,31.40
2018-08-04T13:34:50.929Z,31.23
2018-08-04T13:37:19.463Z,32.47
2018-08-04T13:39:48.054Z,31.07
2018-08-04T13:42:16.559Z,31.16
2018-08-04T13:44:45.089Z,32.04
2018-08-04T13:47:13.588Z,31.26
2018-08-04T13:49:42.309Z,30.75
2018-08-04T13:52:11.780Z,30.63
2018-08-04T13:54:40.485Z,31.65
2018-08-04T13:57:11.628Z,31.41
2018-08-04T13:59:41.206Z,31.26
2018-08-04T14:02:10.529Z,31.58
2018-08-04T14:04:39.300Z,31.46
2018-08-04T14:07:07.950Z,30.93
2018-08-04T14:09:39.567Z,31.76
2018-08-04T14:12:09.622Z,31.18
2018-08-04T14:14:38.920Z,32.05
2018-08-04T14:17:07.818Z,30.88
2018-08-04T14:19:38.572Z,31.41
2018-08-04T14:22:07.249Z,32.06
2018-08-04T14:24:36.054Z,31.57
2018-08-04T14:27:05.959Z,31.71
2018-08-04T14:29:34.629Z,31.40
2018-08-04T14:32:03.755Z,31.24
2018-08-04T14:34:32.308Z,30.81
2018-08-04T14:37:02.568Z,30.88
2018-08-04T14:39:31.954Z,31.38
2018-08-04T14:42:00.997Z,31.37
2018-08-04T14:44:29.511Z,31.49
2018-08-04T14:46:58.805Z,32.40
2018-08-04T14:49:28.308Z,33.39
2018-08-04T14:51:57.405Z,32.89
2018-08-04T14:54:27.245Z,31.79
2018-08-04T14:56:57.280Z,33.54
2018-08-04T14:59:27.520Z,33.70
2018-08-04T15:01:56.032Z,33.79
2018-08-04T15:04:24.755Z,33.79
2018-08-04T15:06:53.485Z,32.88
2018-08-04T15:09:21.988Z,34.23
2018-08-04T15:11:51.396Z,32.96
2018-08-04T15:14:22.035Z,31.77
2018-08-04T15:16:50.509Z,31.93
2018-08-04T15:19:20.685Z,31.42
2018-08-04T15:21:51.567Z,31.55
2018-08-04T15:24:20.864Z,31.51
2018-08-04T15:26:52.578Z,31.52
2018-08-04T15:29:24.624Z,31.25
2018-08-04T15:31:56.625Z,32.23
2018-08-04T15:34:25.649Z,32.38
2018-08-04T15:36:56.155Z,31.24
2018-08-04T15:39:25.294Z,31.32
2018-08-04T15:41:54.351Z,31.65
2018-08-04T15:44:24.620Z,32.12
2018-08-04T15:46:54.843Z,30.69
2018-08-04T15:49:25.596Z,30.68
2018-08-04T15:51:58.596Z,31.05
2018-08-04T15:54:28.703Z,29.68
2018-08-04T15:56:59.065Z,30.82
2018-08-04T15:59:30.026Z,31.48
2018-08-04T16:01:58.596Z,31.24
2018-08-04T16:04:28.173Z,29.99
2018-08-04T16:07:04.435Z,30.91
2018-08-04T16:09:34.737Z,30.39
2018-08-04T16:12:05.929Z,30.59
2018-08-04T16:14:35.225Z,30.96
2018-08-04T16:17:05.168Z,30.97
2018-08-04T16:19:34.098Z,31.57
2018-08-04T16:22:04.863Z,31.77
2018-08-04T16:24:34.774Z,31.80
2018-08-04T16:27:03.489Z,31.43
2018-08-04T16:29:33.229Z,32.63
2018-08-04T16:32:04.746Z,32.53
2018-08-04T16:34:33.941Z,32.04
2018-08-04T16:37:03.177Z,31.76
2018-08-04T16:39:33.252Z,32.08
2018-08-04T16:42:03.529Z,30.70
2018-08-04T16:44:33.018Z,32.37
2018-08-04T16:47:01.670Z,32.88
2018-08-04T16:49:32.624Z,33.72
2018-08-04T16:52:02.237Z,34.49
2018-08-04T16:54:30.847Z,35.27
2018-08-04T16:57:00.035Z,35.72
2018-08-04T16:59:28.591Z,34.79
2018-08-04T17:01:57.064Z,35.48
2018-08-04T17:04:26.060Z,34.90
2018-08-04T17:06:54.684Z,35.92
2018-08-04T17:09:24.267Z,35.99
2018-08-04T17:11:52.928Z,35.65
2018-08-04T17:14:23.783Z,35.96
2018-08-04T17:16:54.053Z,37.23
2018-08-04T17:19:23.437Z,36.01
2018-08-04T17:21:52.320Z,36.68
2018-08-04T17:24:22.456Z,37.64
2018-08-04T17:26:51.311Z,37.04
2018-08-04T17:29:21.968Z,36.29
2018-08-04T17:31:51.138Z,36.95
2018-08-04T17:34:19.827Z,37.29
2018-08-04T17:36:48.522Z,36.97
2018-08-04T17:39:20.428Z,36.95
2018-08-04T17:41:51.037Z,37.84
2018-08-04T17:44:22.621Z,38.52
2018-08-04T17:46:51.840Z,38.61
2018-08-04T17:49:20.546Z,39.17
2018-08-04T17:51:49.684Z,38.98
2018-08-04T17:54:21.308Z,39.27
2018-08-04T17:56:50.489Z,39.88
2018-08-04T17:59:20.620Z,39.23
2018-08-04T18:01:50.043Z,39.72
2018-08-04T18:04:18.895Z,39.41
2018-08-04T18:06:48.804Z,39.78
2018-08-04T18:09:17.645Z,39.89
2018-08-04T18:11:46.137Z,40.03
2018-08-04T18:14:14.732Z,40.10
2018-08-04T18:16:43.639Z,39.85
2018-08-04T18:19:13.123Z,40.28
2018-08-04T18:21:43.088Z,40.21
2018-08-04T18:24:11.596Z,40.17
2018-08-04T18:26:40.339Z,40.60
2018-08-04T18:29:11.869Z,40.15
2018-08-04T18:31:41.185Z,41.35
2018-08-04T18:34:09.859Z,40.85
2018-08-04T18:36:38.548Z,41.58
2018-08-04T18:39:08.461Z,41.90
2018-08-04T18:41:37.006Z,41.32
2018-08-04T18:44:05.625Z,41.64
2018-08-04T18:46:34.635Z,41.93
2018-08-04T18:49:03.277Z,42.67
2018-08-04T18:51:32.049Z,41.84
2018-08-04T18:54:01.445Z,43.07
2018-08-04T18:56:29.983Z,42.45
2018-08-04T18:58:59.287Z,42.07
2018-08-04T19:01:27.866Z,42.58
2018-08-04T19:03:56.723Z,42.83
2018-08-04T19:06:25.234Z,42.57
2018-08-04T19:08:54.365Z,42.67
2018-08-04T19:11:23.286Z,43.11
2018-08-04T19:13:52.432Z,43.57
2018-08-04T19:16:21.204Z,42.80
2018-08-04T19:18:49.976Z,43.65
2018-08-04T19:21:18.975Z,43.38
2018-08-04T19:23:47.565Z,44.03
2018-08-04T19:26:16.238Z,43.83
2018-08-04T19:28:45.263Z,43.87
2018-08-04T19:31:13.745Z,44.72
2018-08-04T19:33:43.418Z,44.67
2018-08-04T19:36:12.122Z,44.22
2018-08-04T19:38:40.631Z,45.19
2018-08-04T19:41:09.225Z,45.28
2018-08-04T19:43:38.301Z,45.04
2018-08-04T19:46:07.499Z,45.92
2018-08-04T19:48:36.197Z,46.14
2018-08-04T19:51:04.728Z,45.78
2018-08-04T19:53:33.592Z,46.24
2018-08-04T19:56:02.179Z,46.42
2018-08-04T19:58:32.290Z,46.23
2018-08-04T20:01:00.795Z,46.47
2018-08-04T20:03:30.136Z,46.50
2018-08-04T20:06:01.174Z,46.76
2018-08-04T20:08:31.394Z,47.12
2018-08-04T20:11:02.922Z,46.97
2018-08-04T20:13:31.777Z,47.13
2018-08-04T20:16:01.215Z,48.28
2018-08-04T20:18:29.746Z,48.17
2018-08-04T20:20:58.346Z,47.48
2018-08-04T20:23:26.912Z,48.01
2018-08-04T20:25:55.468Z,47.85
2018-08-04T20:28:24.167Z,48.74
2018-08-04T20:30:52.678Z,48.12
2018-08-04T20:33:21.334Z,48.73
2018-08-04T20:35:50.904Z,49.33
2018-08-04T20:38:20.297Z,49.12
2018-08-04T20:40:48.909Z,49.52
2018-08-04T20:43:18.080Z,49.47
2018-08-04T20:45:47.520Z,49.35
2018-08-04T20:48:16.750Z,49.44
2018-08-04T20:50:45.740Z,50.06
2018-08-04T20:53:14.492Z,49.96
2018-08-04T20:55:43.138Z,50.43
2018-08-04T20:58:12.563Z,49.98
2018-08-04T21:00:43.117Z,50.36
2018-08-04T21:03:12.796Z,51.12
2018-08-04T21:05:42.109Z,50.68
2018-08-04T21:08:10.897Z,50.86
2018-08-04T21:10:39.585Z,50.66
2018-08-04T21:13:09.385Z,51.55
2018-08-04T21:15:38.953Z,52.09
2018-08-04T21:18:08.116Z,52.28
2018-08-04T21:20:37.387Z,52.15
2018-08-04T21:23:06.402Z,52.26
2018-08-04T21:25:36.949Z,52.36
2018-08-04T21:28:06.017Z,52.14
2018-08-04T21:30:35.049Z,52.04
2018-08-04T21:33:03.690Z,52.55
2018-08-04T21:35:32.453Z,52.25
2018-08-04T21:38:01.168Z,52.51
2018-08-04T21:40:30.460Z,51.75
2018-08-04T21:42:59.065Z,52.28
2018-08-04T21:45:27.516Z,52.61
2018-08-04T21:47:56.558Z,51.84
2018-08-04T21:50:25.946Z,52.04
2018-08-04T21:52:54.809Z,52.81
2018-08-04T21:55:23.411Z,52.14
2018-08-04T21:57:52.777Z,52.36
2018-08-04T22:00:21.321Z,52.28
2018-08-04T22:03:03.642Z,52.11
2018-08-04T22:05:32.220Z,52.24
2018-08-04T22:08:12.919Z,52.01
2018-08-04T22:10:42.531Z,51.99
2018-08-04T22:13:12.117Z,51.91
2018-08-04T22:15:44.684Z,52.20
2018-08-04T22:18:13.956Z,51.99
2018-08-04T22:20:45.070Z,51.22
2018-08-04T22:23:15.510Z,52.35
2018-08-04T22:25:44.185Z,52.36
2018-08-04T22:28:13.794Z,52.00
2018-08-04T22:30:44.908Z,53.06
2018-08-04T22:33:13.457Z,52.46
2018-08-04T22:35:43.610Z,52.68
2018-08-04T22:38:12.089Z,54.18
2018-08-04T22:40:40.616Z,54.34
2018-08-04T22:43:09.463Z,54.25
2018-08-04T22:46:14.346Z,53.82
2018-08-04T22:48:44.361Z,53.81
2018-08-04T22:51:12.898Z,53.64
2018-08-04T22:53:41.880Z,53.54
2018-08-04T22:56:10.587Z,53.39
2018-08-04T22:58:39.670Z,54.11
2018-08-04T23:01:08.273Z,54.64
2018-08-04T23:03:38.560Z,54.43
2018-08-04T23:06:07.260Z,54.66
2018-08-04T23:08:35.678Z,55.36
2018-08-04T23:11:04.245Z,55.97
2018-08-04T23:13:33.924Z,56.03
2018-08-04T23:16:02.799Z,56.67
2018-08-04T23:18:31.406Z,55.99
2018-08-04T23:20:59.880Z,56.22
2018-08-04T23:23:28.391Z,56.73
2018-08-04T23:25:57.227Z,56.56
2018-08-04T23:28:26.324Z,56.08
2018-08-04T23:30:56.386Z,56.46
2018-08-04T23:33:25.893Z,57.24
2018-08-04T23:35:55.033Z,56.94
2018-08-04T23:38:24.022Z,57.40
2018-08-04T23:40:52.512Z,57.63
2018-08-04T23:43:21.847Z,58.13
2018-08-04T23:45:50.987Z,58.54
2018-08-04T23:48:19.934Z,57.87
2018-08-04T23:50:51.653Z,57.27
2018-08-04T23:53:21.147Z,57.75
2018-08-04T23:55:52.414Z,58.52
2018-08-04T23:58:21.605Z,57.74
